Cadiz, Kentucky
Current Conditions -  °F | °C
As of 7:58 PM on Thursday 18 Dec 2014 (Local Time) from KHOP Reporting Station
Overcast Overcast  
Wind Chill: 30°   Ceiling: 4500
Heat Index: 34°   Visibility: 10mi
Dew Point: 29°   Wind: 5mph
Humidity: 83%   Direction: 20°NNE
Pressure: 30.24"   Gusts: NA
Location:  36.87°N, 87.84°W
Report Text: KHOP 190158Z AUTO 02004KT 10SM OVC045 01/M01 A3024 RMK AO2 SLP247 T00121014
Loading
Personal Weather Stations






























Interactive Weather Map New forecast layout! Learn more

10-Day Weather Forecast

Advertisements
Track Severe Weather on mobile